sensor_id;sensor_type;location;lat;lon;timestamp;temperature;humidity
2897;DHT22;1458;49.728;9.228;2023-04-25T00:01:58;9.40;99.90
2897;DHT22;1458;49.728;9.228;2023-04-25T00:04:26;9.30;99.90
2897;DHT22;1458;49.728;9.228;2023-04-25T00:06:55;9.30;99.90
2897;DHT22;1458;49.728;9.228;2023-04-25T00:09:23;9.30;99.90
2897;DHT22;1458;49.728;9.228;2023-04-25T00:11:51;9.20;99.90
2897;DHT22;1458;49.728;9.228;2023-04-25T00:14:18;9.20;99.90
2897;DHT22;1458;49.728;9.228;2023-04-25T00:16:47;9.20;99.90
2897;DHT22;1458;49.728;9.228;2023-04-25T00:19:17;9.20;99.90
2897;DHT22;1458;49.728;9.228;2023-04-25T00:21:45;9.10;99.90
2897;DHT22;1458;49.728;9.228;2023-04-25T00:24:13;9.10;99.90
2897;DHT22;1458;49.728;9.228;2023-04-25T00:26:41;9.10;99.90
2897;DHT22;1458;49.728;9.228;2023-04-25T00:29:08;9.00;99.90
2897;DHT22;1458;49.728;9.228;2023-04-25T00:31:36;8.90;99.90
2897;DHT22;1458;49.728;9.228;2023-04-25T00:34:06;8.90;99.90
2897;DHT22;1458;49.728;9.228;2023-04-25T00:36:35;8.90;99.90
2897;DHT22;1458;49.728;9.228;2023-04-25T00:39:03;9.00;99.90
2897;DHT22;1458;49.728;9.228;2023-04-25T00:41:32;9.00;99.90
2897;DHT22;1458;49.728;9.228;2023-04-25T00:44:01;9.00;99.90
2897;DHT22;1458;49.728;9.228;2023-04-25T00:46:30;9.00;99.90
2897;DHT22;1458;49.728;9.228;2023-04-25T00:48:58;9.00;99.90
2897;DHT22;1458;49.728;9.228;2023-04-25T00:51:27;8.90;99.90
2897;DHT22;1458;49.728;9.228;2023-04-25T00:53:56;8.90;99.90
2897;DHT22;1458;49.728;9.228;2023-04-25T00:56:23;8.80;99.90
2897;DHT22;1458;49.728;9.228;2023-04-25T00:58:53;8.80;99.90
2897;DHT22;1458;49.728;9.228;2023-04-25T01:01:22;8.80;99.90
2897;DHT22;1458;49.728;9.228;2023-04-25T01:03:53;8.70;99.90
2897;DHT22;1458;49.728;9.228;2023-04-25T01:06:21;8.70;99.90
2897;DHT22;1458;49.728;9.228;2023-04-25T01:08:51;8.60;99.90
2897;DHT22;1458;49.728;9.228;2023-04-25T01:11:19;8.60;99.90
2897;DHT22;1458;49.728;9.228;2023-04-25T01:13:46;8.50;99.90
2897;DHT22;1458;49.728;9.228;2023-04-25T01:16:15;8.50;99.90
2897;DHT22;1458;49.728;9.228;2023-04-25T01:18:46;8.50;99.90
2897;DHT22;1458;49.728;9.228;2023-04-25T01:21:16;8.50;99.90
2897;DHT22;1458;49.728;9.228;2023-04-25T01:23:46;8.50;99.90
2897;DHT22;1458;49.728;9.228;2023-04-25T01:26:15;8.50;99.90
2897;DHT22;1458;49.728;9.228;2023-04-25T01:28:44;8.50;99.90
2897;DHT22;1458;49.728;9.228;2023-04-25T01:31:13;8.40;99.90
2897;DHT22;1458;49.728;9.228;2023-04-25T01:33:44;8.40;99.90
2897;DHT22;1458;49.728;9.228;2023-04-25T01:36:13;8.40;99.90
2897;DHT22;1458;49.728;9.228;2023-04-25T01:38:44;8.40;99.90
2897;DHT22;1458;49.728;9.228;2023-04-25T01:41:13;8.40;99.90
2897;DHT22;1458;49.728;9.228;2023-04-25T01:43:49;8.40;99.90
2897;DHT22;1458;49.728;9.228;2023-04-25T01:46:18;8.30;99.90
2897;DHT22;1458;49.728;9.228;2023-04-25T01:48:48;8.40;99.90
2897;DHT22;1458;49.728;9.228;2023-04-25T01:51:21;8.50;99.90
2897;DHT22;1458;49.728;9.228;2023-04-25T01:53:52;8.50;99.90
2897;DHT22;1458;49.728;9.228;2023-04-25T01:56:22;8.40;99.90
2897;DHT22;1458;49.728;9.228;2023-04-25T01:58:51;8.40;99.90
2897;DHT22;1458;49.728;9.228;2023-04-25T02:01:23;8.40;99.90
2897;DHT22;1458;49.728;9.228;2023-04-25T02:04:11;8.40;99.90
2897;DHT22;1458;49.728;9.228;2023-04-25T02:06:42;8.30;99.90
2897;DHT22;1458;49.728;9.228;2023-04-25T02:09:14;8.50;99.90
2897;DHT22;1458;49.728;9.228;2023-04-25T02:11:50;8.60;99.90
2897;DHT22;1458;49.728;9.228;2023-04-25T02:14:31;8.60;99.90
2897;DHT22;1458;49.728;9.228;2023-04-25T02:17:30;8.60;99.90
2897;DHT22;1458;49.728;9.228;2023-04-25T02:20:01;8.60;99.90
2897;DHT22;1458;49.728;9.228;2023-04-25T02:22:37;8.50;99.90
2897;DHT22;1458;49.728;9.228;2023-04-25T02:25:12;8.60;99.90
2897;DHT22;1458;49.728;9.228;2023-04-25T02:27:47;8.50;99.90
2897;DHT22;1458;49.728;9.228;2023-04-25T02:30:21;8.50;99.90
2897;DHT22;1458;49.728;9.228;2023-04-25T02:33:05;8.50;99.90
2897;DHT22;1458;49.728;9.228;2023-04-25T02:35:46;8.50;99.90
2897;DHT22;1458;49.728;9.228;2023-04-25T02:38:16;8.70;99.90
2897;DHT22;1458;49.728;9.228;2023-04-25T02:40:45;8.70;99.90
2897;DHT22;1458;49.728;9.228;2023-04-25T02:43:17;8.80;99.90
2897;DHT22;1458;49.728;9.228;2023-04-25T02:48:57;8.70;99.90
2897;DHT22;1458;49.728;9.228;2023-04-25T02:51:26;8.80;99.90
2897;DHT22;1458;49.728;9.228;2023-04-25T02:54:02;8.60;99.90
2897;DHT22;1458;49.728;9.228;2023-04-25T02:56:43;8.70;99.90
2897;DHT22;1458;49.728;9.228;2023-04-25T02:59:22;8.70;99.90
2897;DHT22;1458;49.728;9.228;2023-04-25T03:01:53;8.60;99.90
2897;DHT22;1458;49.728;9.228;2023-04-25T03:04:28;8.60;99.90
2897;DHT22;1458;49.728;9.228;2023-04-25T03:06:58;8.50;99.90
2897;DHT22;1458;49.728;9.228;2023-04-25T03:09:33;8.50;99.90
2897;DHT22;1458;49.728;9.228;2023-04-25T03:12:02;8.70;99.90
2897;DHT22;1458;49.728;9.228;2023-04-25T03:14:38;8.60;99.90
2897;DHT22;1458;49.728;9.228;2023-04-25T03:17:33;8.70;99.90
2897;DHT22;1458;49.728;9.228;2023-04-25T03:20:08;8.50;99.90
2897;DHT22;1458;49.728;9.228;2023-04-25T03:22:39;8.60;99.90
2897;DHT22;1458;49.728;9.228;2023-04-25T03:25:10;8.60;99.90
2897;DHT22;1458;49.728;9.228;2023-04-25T03:27:41;8.60;99.90
2897;DHT22;1458;49.728;9.228;2023-04-25T03:30:17;8.50;99.90
2897;DHT22;1458;49.728;9.228;2023-04-25T03:32:48;8.50;99.90
2897;DHT22;1458;49.728;9.228;2023-04-25T03:35:17;8.50;99.90
2897;DHT22;1458;49.728;9.228;2023-04-25T03:37:46;8.50;99.90
2897;DHT22;1458;49.728;9.228;2023-04-25T03:40:30;8.50;99.90
2897;DHT22;1458;49.728;9.228;2023-04-25T03:43:43;8.50;99.90
2897;DHT22;1458;49.728;9.228;2023-04-25T03:46:16;8.50;99.90
2897;DHT22;1458;49.728;9.228;2023-04-25T03:48:48;8.50;99.90
2897;DHT22;1458;49.728;9.228;2023-04-25T03:51:27;8.50;99.90
2897;DHT22;1458;49.728;9.228;2023-04-25T03:54:01;8.50;99.90
2897;DHT22;1458;49.728;9.228;2023-04-25T03:56:32;8.50;99.90
2897;DHT22;1458;49.728;9.228;2023-04-25T03:59:20;8.40;99.90
2897;DHT22;1458;49.728;9.228;2023-04-25T04:02:11;8.30;99.90
2897;DHT22;1458;49.728;9.228;2023-04-25T04:05:27;8.30;99.90
2897;DHT22;1458;49.728;9.228;2023-04-25T04:07:58;8.30;99.90
2897;DHT22;1458;49.728;9.228;2023-04-25T04:10:29;8.30;99.90
2897;DHT22;1458;49.728;9.228;2023-04-25T04:13:17;8.20;99.90
2897;DHT22;1458;49.728;9.228;2023-04-25T04:15:49;8.30;99.90
2897;DHT22;1458;49.728;9.228;2023-04-25T04:18:25;8.20;99.90
2897;DHT22;1458;49.728;9.228;2023-04-25T04:21:11;8.10;99.90
2897;DHT22;1458;49.728;9.228;2023-04-25T04:23:50;8.10;99.90
2897;DHT22;1458;49.728;9.228;2023-04-25T04:26:29;8.30;99.90
2897;DHT22;1458;49.728;9.228;2023-04-25T04:29:15;8.10;99.90
2897;DHT22;1458;49.728;9.228;2023-04-25T04:31:59;8.10;99.90
2897;DHT22;1458;49.728;9.228;2023-04-25T04:34:39;8.30;99.90
2897;DHT22;1458;49.728;9.228;2023-04-25T04:37:18;8.30;99.90
2897;DHT22;1458;49.728;9.228;2023-04-25T04:40:52;8.40;99.90
2897;DHT22;1458;49.728;9.228;2023-04-25T04:44:17;8.30;99.90
2897;DHT22;1458;49.728;9.228;2023-04-25T04:47:35;8.30;99.90
2897;DHT22;1458;49.728;9.228;2023-04-25T04:50:25;8.40;99.90
2897;DHT22;1458;49.728;9.228;2023-04-25T04:53:05;8.30;99.90
2897;DHT22;1458;49.728;9.228;2023-04-25T04:55:44;8.30;99.90
2897;DHT22;1458;49.728;9.228;2023-04-25T04:58:31;8.50;99.90
2897;DHT22;1458;49.728;9.228;2023-04-25T05:01:20;8.50;99.90
2897;DHT22;1458;49.728;9.228;2023-04-25T05:04:05;8.50;99.90
2897;DHT22;1458;49.728;9.228;2023-04-25T05:06:50;8.50;99.90
2897;DHT22;1458;49.728;9.228;2023-04-25T05:09:38;8.40;99.90
2897;DHT22;1458;49.728;9.228;2023-04-25T05:12:21;8.40;99.90
2897;DHT22;1458;49.728;9.228;2023-04-25T05:15:00;8.40;99.90
2897;DHT22;1458;49.728;9.228;2023-04-25T05:17:49;8.30;99.90
2897;DHT22;1458;49.728;9.228;2023-04-25T05:20:30;8.40;99.90
2897;DHT22;1458;49.728;9.228;2023-04-25T05:23:17;8.40;99.90
2897;DHT22;1458;49.728;9.228;2023-04-25T05:26:04;8.40;99.90
2897;DHT22;1458;49.728;9.228;2023-04-25T05:28:57;8.60;99.90
2897;DHT22;1458;49.728;9.228;2023-04-25T05:31:58;8.80;99.90
2897;DHT22;1458;49.728;9.228;2023-04-25T05:34:28;8.90;99.90
2897;DHT22;1458;49.728;9.228;2023-04-25T05:37:01;8.90;99.90
2897;DHT22;1458;49.728;9.228;2023-04-25T05:39:33;9.10;99.90
2897;DHT22;1458;49.728;9.228;2023-04-25T05:42:09;9.40;99.90
2897;DHT22;1458;49.728;9.228;2023-04-25T05:44:56;9.40;99.90
2897;DHT22;1458;49.728;9.228;2023-04-25T05:47:47;9.40;99.90
2897;DHT22;1458;49.728;9.228;2023-04-25T05:50:24;9.30;99.90
2897;DHT22;1458;49.728;9.228;2023-04-25T05:52:56;9.40;99.90
2897;DHT22;1458;49.728;9.228;2023-04-25T05:55:42;9.30;99.90
2897;DHT22;1458;49.728;9.228;2023-04-25T05:58:44;9.40;99.90
2897;DHT22;1458;49.728;9.228;2023-04-25T06:01:16;9.40;99.90
2897;DHT22;1458;49.728;9.228;2023-04-25T06:03:46;9.60;99.90
2897;DHT22;1458;49.728;9.228;2023-04-25T06:06:43;9.70;99.90
2897;DHT22;1458;49.728;9.228;2023-04-25T06:09:44;9.70;99.90
2897;DHT22;1458;49.728;9.228;2023-04-25T06:12:23;9.50;99.90
2897;DHT22;1458;49.728;9.228;2023-04-25T06:14:57;9.60;99.90
2897;DHT22;1458;49.728;9.228;2023-04-25T06:17:26;9.80;99.90
2897;DHT22;1458;49.728;9.228;2023-04-25T06:19:55;9.80;99.90
2897;DHT22;1458;49.728;9.228;2023-04-25T06:22:30;9.70;99.90
2897;DHT22;1458;49.728;9.228;2023-04-25T06:24:59;9.60;99.90
2897;DHT22;1458;49.728;9.228;2023-04-25T06:27:34;9.60;99.90
2897;DHT22;1458;49.728;9.228;2023-04-25T06:30:07;9.50;99.90
2897;DHT22;1458;49.728;9.228;2023-04-25T06:32:41;9.70;99.90
2897;DHT22;1458;49.728;9.228;2023-04-25T06:35:10;9.60;99.90
2897;DHT22;1458;49.728;9.228;2023-04-25T06:37:44;9.60;99.90
2897;DHT22;1458;49.728;9.228;2023-04-25T06:40:12;9.60;99.90
2897;DHT22;1458;49.728;9.228;2023-04-25T06:42:46;9.50;99.90
2897;DHT22;1458;49.728;9.228;2023-04-25T06:45:46;9.40;99.90
2897;DHT22;1458;49.728;9.228;2023-04-25T06:48:17;9.60;99.90
2897;DHT22;1458;49.728;9.228;2023-04-25T06:50:49;9.80;99.90
2897;DHT22;1458;49.728;9.228;2023-04-25T06:53:22;9.80;99.90
2897;DHT22;1458;49.728;9.228;2023-04-25T06:55:57;9.90;99.90
2897;DHT22;1458;49.728;9.228;2023-04-25T06:58:32;10.00;99.90
2897;DHT22;1458;49.728;9.228;2023-04-25T07:01:12;10.30;99.90
2897;DHT22;1458;49.728;9.228;2023-04-25T07:03:55;10.40;99.90
2897;DHT22;1458;49.728;9.228;2023-04-25T07:06:24;10.40;99.90
2897;DHT22;1458;49.728;9.228;2023-04-25T07:08:56;10.30;99.90
2897;DHT22;1458;49.728;9.228;2023-04-25T07:11:24;10.00;99.90
2897;DHT22;1458;49.728;9.228;2023-04-25T07:13:56;9.80;99.90
2897;DHT22;1458;49.728;9.228;2023-04-25T07:16:24;9.50;99.90
2897;DHT22;1458;49.728;9.228;2023-04-25T07:18:52;9.70;99.90
2897;DHT22;1458;49.728;9.228;2023-04-25T07:21:21;9.80;99.90
2897;DHT22;1458;49.728;9.228;2023-04-25T07:23:55;10.00;99.90
2897;DHT22;1458;49.728;9.228;2023-04-25T07:26:30;10.10;99.90
2897;DHT22;1458;49.728;9.228;2023-04-25T07:29:17;10.30;99.90
2897;DHT22;1458;49.728;9.228;2023-04-25T07:31:47;10.30;99.30
2897;DHT22;1458;49.728;9.228;2023-04-25T07:34:22;10.20;99.30
2897;DHT22;1458;49.728;9.228;2023-04-25T07:36:55;10.50;99.30
2897;DHT22;1458;49.728;9.228;2023-04-25T07:39:27;10.70;98.70
2897;DHT22;1458;49.728;9.228;2023-04-25T07:41:58;10.80;98.40
2897;DHT22;1458;49.728;9.228;2023-04-25T07:44:29;11.00;98.60
2897;DHT22;1458;49.728;9.228;2023-04-25T07:46:58;11.20;95.80
2897;DHT22;1458;49.728;9.228;2023-04-25T07:49:34;11.50;96.00
2897;DHT22;1458;49.728;9.228;2023-04-25T07:52:11;11.50;95.20
2897;DHT22;1458;49.728;9.228;2023-04-25T07:54:46;11.50;95.30
2897;DHT22;1458;49.728;9.228;2023-04-25T07:57:20;11.70;92.40
2897;DHT22;1458;49.728;9.228;2023-04-25T07:59:53;11.80;91.50
2897;DHT22;1458;49.728;9.228;2023-04-25T08:02:22;12.00;92.70
2897;DHT22;1458;49.728;9.228;2023-04-25T08:04:53;11.80;90.60
2897;DHT22;1458;49.728;9.228;2023-04-25T08:07:24;11.90;89.60
2897;DHT22;1458;49.728;9.228;2023-04-25T08:09:59;11.80;88.30
2897;DHT22;1458;49.728;9.228;2023-04-25T08:12:36;12.10;86.80
2897;DHT22;1458;49.728;9.228;2023-04-25T08:15:10;12.70;90.40
2897;DHT22;1458;49.728;9.228;2023-04-25T08:17:41;12.80;84.40
2897;DHT22;1458;49.728;9.228;2023-04-25T08:20:12;12.80;85.60
2897;DHT22;1458;49.728;9.228;2023-04-25T08:22:43;12.90;84.80
2897;DHT22;1458;49.728;9.228;2023-04-25T08:25:27;12.50;80.10
2897;DHT22;1458;49.728;9.228;2023-04-25T08:27:55;12.20;75.50
2897;DHT22;1458;49.728;9.228;2023-04-25T08:30:25;12.10;76.30
2897;DHT22;1458;49.728;9.228;2023-04-25T08:32:54;11.90;75.90
2897;DHT22;1458;49.728;9.228;2023-04-25T08:35:56;11.70;75.20
2897;DHT22;1458;49.728;9.228;2023-04-25T08:38:26;11.80;77.90
2897;DHT22;1458;49.728;9.228;2023-04-25T08:40:57;11.90;71.50
2897;DHT22;1458;49.728;9.228;2023-04-25T08:43:29;11.60;74.60
2897;DHT22;1458;49.728;9.228;2023-04-25T08:45:59;11.60;73.20
2897;DHT22;1458;49.728;9.228;2023-04-25T08:48:40;11.20;70.00
2897;DHT22;1458;49.728;9.228;2023-04-25T08:51:10;11.20;72.00
2897;DHT22;1458;49.728;9.228;2023-04-25T08:53:43;11.10;71.60
2897;DHT22;1458;49.728;9.228;2023-04-25T08:56:16;11.50;71.00
2897;DHT22;1458;49.728;9.228;2023-04-25T08:58:47;11.80;71.80
2897;DHT22;1458;49.728;9.228;2023-04-25T09:01:17;12.00;70.60
2897;DHT22;1458;49.728;9.228;2023-04-25T09:03:50;12.10;68.10
2897;DHT22;1458;49.728;9.228;2023-04-25T09:06:22;12.20;66.90
2897;DHT22;1458;49.728;9.228;2023-04-25T09:08:52;11.90;67.50
2897;DHT22;1458;49.728;9.228;2023-04-25T09:11:21;11.70;67.50
2897;DHT22;1458;49.728;9.228;2023-04-25T09:13:49;11.50;68.00
2897;DHT22;1458;49.728;9.228;2023-04-25T09:16:57;11.60;69.80
2897;DHT22;1458;49.728;9.228;2023-04-25T09:20:06;11.50;69.20
2897;DHT22;1458;49.728;9.228;2023-04-25T09:22:36;10.90;70.00
2897;DHT22;1458;49.728;9.228;2023-04-25T09:25:08;10.80;69.30
2897;DHT22;1458;49.728;9.228;2023-04-25T09:27:49;10.80;70.50
2897;DHT22;1458;49.728;9.228;2023-04-25T09:30:29;10.80;70.70
2897;DHT22;1458;49.728;9.228;2023-04-25T09:33:07;10.90;71.80
2897;DHT22;1458;49.728;9.228;2023-04-25T09:35:37;10.90;69.50
2897;DHT22;1458;49.728;9.228;2023-04-25T09:38:09;11.00;70.30
2897;DHT22;1458;49.728;9.228;2023-04-25T09:40:56;11.20;69.50
2897;DHT22;1458;49.728;9.228;2023-04-25T09:43:37;11.20;69.00
2897;DHT22;1458;49.728;9.228;2023-04-25T09:46:08;11.90;70.10
2897;DHT22;1458;49.728;9.228;2023-04-25T09:48:39;12.10;64.10
2897;DHT22;1458;49.728;9.228;2023-04-25T09:51:10;12.20;65.60
2897;DHT22;1458;49.728;9.228;2023-04-25T09:53:42;12.20;65.10
2897;DHT22;1458;49.728;9.228;2023-04-25T09:56:35;12.00;64.90
2897;DHT22;1458;49.728;9.228;2023-04-25T09:59:07;12.30;65.80
2897;DHT22;1458;49.728;9.228;2023-04-25T10:01:40;12.30;64.90
2897;DHT22;1458;49.728;9.228;2023-04-25T10:04:18;12.80;64.80
2897;DHT22;1458;49.728;9.228;2023-04-25T10:07:00;13.30;65.70
2897;DHT22;1458;49.728;9.228;2023-04-25T10:09:29;13.90;65.10
2897;DHT22;1458;49.728;9.228;2023-04-25T10:12:00;14.20;61.30
2897;DHT22;1458;49.728;9.228;2023-04-25T10:14:31;14.20;63.60
2897;DHT22;1458;49.728;9.228;2023-04-25T10:17:00;14.00;61.90
2897;DHT22;1458;49.728;9.228;2023-04-25T10:19:28;13.60;62.80
2897;DHT22;1458;49.728;9.228;2023-04-25T10:22:04;13.40;60.90
2897;DHT22;1458;49.728;9.228;2023-04-25T10:24:37;13.10;61.00
2897;DHT22;1458;49.728;9.228;2023-04-25T10:27:06;13.00;62.50
2897;DHT22;1458;49.728;9.228;2023-04-25T10:29:36;12.60;60.80
2897;DHT22;1458;49.728;9.228;2023-04-25T10:32:04;12.00;61.50
2897;DHT22;1458;49.728;9.228;2023-04-25T10:34:40;12.10;65.10
2897;DHT22;1458;49.728;9.228;2023-04-25T10:37:12;12.50;65.30
2897;DHT22;1458;49.728;9.228;2023-04-25T10:39:40;13.20;66.50
2897;DHT22;1458;49.728;9.228;2023-04-25T10:42:12;13.40;67.20
2897;DHT22;1458;49.728;9.228;2023-04-25T10:45:01;13.60;63.80
2897;DHT22;1458;49.728;9.228;2023-04-25T10:47:34;13.40;64.10
2897;DHT22;1458;49.728;9.228;2023-04-25T10:50:05;13.10;66.20
2897;DHT22;1458;49.728;9.228;2023-04-25T10:52:34;12.70;66.40
2897;DHT22;1458;49.728;9.228;2023-04-25T10:55:04;12.30;70.40
2897;DHT22;1458;49.728;9.228;2023-04-25T10:57:40;11.90;70.40
2897;DHT22;1458;49.728;9.228;2023-04-25T11:00:13;11.60;71.30
2897;DHT22;1458;49.728;9.228;2023-04-25T11:02:43;11.50;75.30
2897;DHT22;1458;49.728;9.228;2023-04-25T11:05:22;11.50;76.20
2897;DHT22;1458;49.728;9.228;2023-04-25T11:07:53;11.60;76.00
2897;DHT22;1458;49.728;9.228;2023-04-25T11:10:25;11.30;71.80
2897;DHT22;1458;49.728;9.228;2023-04-25T11:12:54;11.30;71.50
2897;DHT22;1458;49.728;9.228;2023-04-25T11:15:23;11.70;71.80
2897;DHT22;1458;49.728;9.228;2023-04-25T11:17:51;11.70;69.10
2897;DHT22;1458;49.728;9.228;2023-04-25T11:20:19;11.90;70.70
2897;DHT22;1458;49.728;9.228;2023-04-25T11:22:47;11.90;69.40
2897;DHT22;1458;49.728;9.228;2023-04-25T11:25:16;11.90;69.10
2897;DHT22;1458;49.728;9.228;2023-04-25T11:27:50;11.80;69.10
2897;DHT22;1458;49.728;9.228;2023-04-25T11:30:18;11.80;70.60
2897;DHT22;1458;49.728;9.228;2023-04-25T11:32:49;11.90;70.00
2897;DHT22;1458;49.728;9.228;2023-04-25T11:35:18;12.30;71.60
2897;DHT22;1458;49.728;9.228;2023-04-25T11:37:46;12.50;67.70
2897;DHT22;1458;49.728;9.228;2023-04-25T11:40:14;12.80;67.60
2897;DHT22;1458;49.728;9.228;2023-04-25T11:42:44;13.10;67.40
2897;DHT22;1458;49.728;9.228;2023-04-25T11:45:13;13.10;63.60
2897;DHT22;1458;49.728;9.228;2023-04-25T11:47:44;13.20;64.40
2897;DHT22;1458;49.728;9.228;2023-04-25T11:50:13;13.30;64.00
2897;DHT22;1458;49.728;9.228;2023-04-25T11:52:42;13.30;65.10
2897;DHT22;1458;49.728;9.228;2023-04-25T11:55:13;13.50;64.40
2897;DHT22;1458;49.728;9.228;2023-04-25T11:57:45;13.30;64.50
2897;DHT22;1458;49.728;9.228;2023-04-25T12:00:17;13.50;66.10
2897;DHT22;1458;49.728;9.228;2023-04-25T12:02:47;13.70;63.30
2897;DHT22;1458;49.728;9.228;2023-04-25T12:05:17;13.70;60.70
2897;DHT22;1458;49.728;9.228;2023-04-25T12:07:46;13.40;62.30
2897;DHT22;1458;49.728;9.228;2023-04-25T12:10:14;13.10;61.30
2897;DHT22;1458;49.728;9.228;2023-04-25T12:12:43;13.10;66.10
2897;DHT22;1458;49.728;9.228;2023-04-25T12:15:13;12.90;62.00
2897;DHT22;1458;49.728;9.228;2023-04-25T12:17:45;12.20;63.40
2897;DHT22;1458;49.728;9.228;2023-04-25T12:20:15;12.10;64.30
2897;DHT22;1458;49.728;9.228;2023-04-25T12:22:46;11.90;64.30
2897;DHT22;1458;49.728;9.228;2023-04-25T12:25:36;11.70;68.10
2897;DHT22;1458;49.728;9.228;2023-04-25T12:28:16;11.70;67.50
2897;DHT22;1458;49.728;9.228;2023-04-25T12:30:58;11.90;67.50
2897;DHT22;1458;49.728;9.228;2023-04-25T12:33:29;12.20;66.40
2897;DHT22;1458;49.728;9.228;2023-04-25T12:35:59;12.30;67.50
2897;DHT22;1458;49.728;9.228;2023-04-25T12:38:31;12.80;67.40
2897;DHT22;1458;49.728;9.228;2023-04-25T12:41:00;13.00;64.30
2897;DHT22;1458;49.728;9.228;2023-04-25T12:43:28;13.50;64.70
2897;DHT22;1458;49.728;9.228;2023-04-25T12:45:56;13.60;61.00
2897;DHT22;1458;49.728;9.228;2023-04-25T12:48:24;13.30;62.90
2897;DHT22;1458;49.728;9.228;2023-04-25T12:50:52;13.10;62.80
2897;DHT22;1458;49.728;9.228;2023-04-25T12:53:22;13.10;60.70
2897;DHT22;1458;49.728;9.228;2023-04-25T12:55:50;12.90;60.70
2897;DHT22;1458;49.728;9.228;2023-04-25T12:58:18;12.60;62.40
2897;DHT22;1458;49.728;9.228;2023-04-25T13:00:46;12.70;62.90
2897;DHT22;1458;49.728;9.228;2023-04-25T13:03:15;12.60;62.40
2897;DHT22;1458;49.728;9.228;2023-04-25T13:05:43;12.50;63.50
2897;DHT22;1458;49.728;9.228;2023-04-25T13:08:11;12.00;65.50
2897;DHT22;1458;49.728;9.228;2023-04-25T13:10:47;11.80;65.90
2897;DHT22;1458;49.728;9.228;2023-04-25T13:13:14;11.50;66.00
2897;DHT22;1458;49.728;9.228;2023-04-25T13:15:43;11.70;66.30
2897;DHT22;1458;49.728;9.228;2023-04-25T13:18:13;11.70;65.90
2897;DHT22;1458;49.728;9.228;2023-04-25T13:20:43;11.90;66.40
2897;DHT22;1458;49.728;9.228;2023-04-25T13:23:12;12.20;64.60
2897;DHT22;1458;49.728;9.228;2023-04-25T13:25:44;12.10;64.00
2897;DHT22;1458;49.728;9.228;2023-04-25T13:28:12;12.20;63.40
2897;DHT22;1458;49.728;9.228;2023-04-25T13:30:39;12.40;65.10
2897;DHT22;1458;49.728;9.228;2023-04-25T13:33:20;12.60;64.40
2897;DHT22;1458;49.728;9.228;2023-04-25T13:35:49;12.50;62.30
2897;DHT22;1458;49.728;9.228;2023-04-25T13:38:21;12.20;62.70
2897;DHT22;1458;49.728;9.228;2023-04-25T13:40:55;12.10;63.70
2897;DHT22;1458;49.728;9.228;2023-04-25T13:43:23;11.80;63.10
2897;DHT22;1458;49.728;9.228;2023-04-25T13:45:53;11.60;63.80
2897;DHT22;1458;49.728;9.228;2023-04-25T13:48:21;11.50;64.70
2897;DHT22;1458;49.728;9.228;2023-04-25T13:50:49;11.70;63.70
2897;DHT22;1458;49.728;9.228;2023-04-25T13:53:16;11.90;63.60
2897;DHT22;1458;49.728;9.228;2023-04-25T13:55:44;12.50;62.30
2897;DHT22;1458;49.728;9.228;2023-04-25T13:58:13;12.90;61.40
2897;DHT22;1458;49.728;9.228;2023-04-25T14:00:40;12.90;60.70
2897;DHT22;1458;49.728;9.228;2023-04-25T14:03:09;12.30;61.30
2897;DHT22;1458;49.728;9.228;2023-04-25T14:05:37;12.60;60.50
2897;DHT22;1458;49.728;9.228;2023-04-25T14:08:08;12.70;62.50
2897;DHT22;1458;49.728;9.228;2023-04-25T14:10:36;12.70;62.50
2897;DHT22;1458;49.728;9.228;2023-04-25T14:13:04;12.90;61.10
2897;DHT22;1458;49.728;9.228;2023-04-25T14:15:34;12.30;60.30
2897;DHT22;1458;49.728;9.228;2023-04-25T14:18:01;12.10;62.00
2897;DHT22;1458;49.728;9.228;2023-04-25T14:20:29;12.10;62.90
2897;DHT22;1458;49.728;9.228;2023-04-25T14:22:58;12.10;62.70
2897;DHT22;1458;49.728;9.228;2023-04-25T14:25:25;12.10;63.10
2897;DHT22;1458;49.728;9.228;2023-04-25T14:27:53;11.90;61.90
2897;DHT22;1458;49.728;9.228;2023-04-25T14:30:21;12.00;64.00
2897;DHT22;1458;49.728;9.228;2023-04-25T14:32:50;12.20;62.90
2897;DHT22;1458;49.728;9.228;2023-04-25T14:35:17;12.20;61.50
2897;DHT22;1458;49.728;9.228;2023-04-25T14:37:45;12.20;62.10
2897;DHT22;1458;49.728;9.228;2023-04-25T14:40:13;12.00;60.00
2897;DHT22;1458;49.728;9.228;2023-04-25T14:42:41;11.90;57.10
2897;DHT22;1458;49.728;9.228;2023-04-25T14:45:09;12.10;57.60
2897;DHT22;1458;49.728;9.228;2023-04-25T14:47:37;12.40;57.80
2897;DHT22;1458;49.728;9.228;2023-04-25T14:50:07;12.30;54.60
2897;DHT22;1458;49.728;9.228;2023-04-25T14:52:35;12.40;54.40
2897;DHT22;1458;49.728;9.228;2023-04-25T14:55:04;12.20;55.00
2897;DHT22;1458;49.728;9.228;2023-04-25T14:57:33;12.30;53.60
2897;DHT22;1458;49.728;9.228;2023-04-25T15:00:02;12.40;55.80
2897;DHT22;1458;49.728;9.228;2023-04-25T15:02:34;12.50;57.10
2897;DHT22;1458;49.728;9.228;2023-04-25T15:05:02;12.70;55.90
2897;DHT22;1458;49.728;9.228;2023-04-25T15:07:31;12.50;54.70
2897;DHT22;1458;49.728;9.228;2023-04-25T15:10:00;12.80;57.40
2897;DHT22;1458;49.728;9.228;2023-04-25T15:12:28;12.70;52.00
2897;DHT22;1458;49.728;9.228;2023-04-25T15:14:56;12.80;52.60
2897;DHT22;1458;49.728;9.228;2023-04-25T15:17:23;12.90;55.70
2897;DHT22;1458;49.728;9.228;2023-04-25T15:19:53;12.80;53.10
2897;DHT22;1458;49.728;9.228;2023-04-25T15:22:22;12.90;53.00
2897;DHT22;1458;49.728;9.228;2023-04-25T15:24:51;12.60;54.50
2897;DHT22;1458;49.728;9.228;2023-04-25T15:27:20;12.40;50.10
2897;DHT22;1458;49.728;9.228;2023-04-25T15:29:47;12.30;50.00
2897;DHT22;1458;49.728;9.228;2023-04-25T15:32:17;12.30;52.10
2897;DHT22;1458;49.728;9.228;2023-04-25T15:34:44;12.30;53.40
2897;DHT22;1458;49.728;9.228;2023-04-25T15:37:15;12.30;52.30
2897;DHT22;1458;49.728;9.228;2023-04-25T15:39:44;12.30;51.50
2897;DHT22;1458;49.728;9.228;2023-04-25T15:42:13;12.20;56.60
2897;DHT22;1458;49.728;9.228;2023-04-25T15:44:40;12.30;51.10
2897;DHT22;1458;49.728;9.228;2023-04-25T15:47:08;12.40;50.10
2897;DHT22;1458;49.728;9.228;2023-04-25T15:49:35;12.50;50.10
2897;DHT22;1458;49.728;9.228;2023-04-25T15:52:03;12.50;47.40
2897;DHT22;1458;49.728;9.228;2023-04-25T15:54:30;12.60;51.70
2897;DHT22;1458;49.728;9.228;2023-04-25T15:56:58;12.60;46.40
2897;DHT22;1458;49.728;9.228;2023-04-25T15:59:28;12.80;50.50
2897;DHT22;1458;49.728;9.228;2023-04-25T16:01:55;12.70;47.40
2897;DHT22;1458;49.728;9.228;2023-04-25T16:04:23;12.60;48.30
2897;DHT22;1458;49.728;9.228;2023-04-25T16:06:52;12.30;50.00
2897;DHT22;1458;49.728;9.228;2023-04-25T16:09:19;12.20;48.40
2897;DHT22;1458;49.728;9.228;2023-04-25T16:11:47;12.00;49.60
2897;DHT22;1458;49.728;9.228;2023-04-25T16:14:14;11.80;51.10
2897;DHT22;1458;49.728;9.228;2023-04-25T16:16:43;11.70;49.20
2897;DHT22;1458;49.728;9.228;2023-04-25T16:19:11;11.60;49.10
2897;DHT22;1458;49.728;9.228;2023-04-25T16:21:38;11.50;52.20
2897;DHT22;1458;49.728;9.228;2023-04-25T16:24:07;11.50;49.60
2897;DHT22;1458;49.728;9.228;2023-04-25T16:26:35;11.40;51.90
2897;DHT22;1458;49.728;9.228;2023-04-25T16:29:03;11.40;50.40
2897;DHT22;1458;49.728;9.228;2023-04-25T16:31:32;11.40;52.80
2897;DHT22;1458;49.728;9.228;2023-04-25T16:34:02;11.30;50.80
2897;DHT22;1458;49.728;9.228;2023-04-25T16:36:30;11.20;50.70
2897;DHT22;1458;49.728;9.228;2023-04-25T16:38:58;11.20;51.60
2897;DHT22;1458;49.728;9.228;2023-04-25T16:41:26;11.20;52.10
2897;DHT22;1458;49.728;9.228;2023-04-25T16:43:54;11.20;51.70
2897;DHT22;1458;49.728;9.228;2023-04-25T16:46:22;11.20;53.50
2897;DHT22;1458;49.728;9.228;2023-04-25T16:48:49;11.20;55.10
2897;DHT22;1458;49.728;9.228;2023-04-25T16:51:18;11.10;52.50